Hovedside
METAR-TAF:

METAR-TAF

Lufthavner :

Tabuk, Saudi-Arabia

breddegrad: 28-22N, lengdegrad: 036-36E, høyde over havet: 778 m

Gjeldene værobservasjon

Denne rapporten ble laget for 1 time og 11 minutter siden, klokken 08:00 UTC
Vind 4 kt fra Nordøst
Temperatur 29°C
Luftfuktighet 20%
Trykk 1015 hPa
Sikt 10 km eller mer
ingen skyer under 1500 m og ingen bygeskyer

METAR: OETB 250800Z 05004KT CAVOK 29/04 Q1015 NOSIG

Tid: 12:11 (09:11 UTC)

Varsel

Denne rapporten ble laget for 10 timer og 11 minutter siden, klokken 23:00 UTC
Varsel gyldig fra 25. klokken 00 UTC til 26. klokken 06 UTC
Vind 3 kt fra skiftende retning
Sikt 10 km eller mer
ingen skyer under 1500 m og ingen bygeskyer
Blir
fra 25. klokken 06 UTC til 25. klokken 08 UTC
Vind 10 kt fra Øst
Blir
fra 25. klokken 18 UTC til 25. klokken 20 UTC
Vind 3 kt fra skiftende retning

TAF: OETB 242300Z 2500/2606 VRB03KT CAVOK BECMG 2506/2508 08010KT BECMG 2518/2520 VRB03KT

Værobservasjoner og værvarsel for over 4000 flyplasser (METAR- og TAF-rapporter).

Tilgjengelige stasjoner er representert av de røde og gule prikkene på kartet.

Hold musepekeren over prikken for å se navnet på stasjonen.

Klikk så for å se værobservasjoner og -varsler.

For å forandre kartet kan du klikke på den grønne knappen med svart kryss for å zoome inn, på den grønne knappen med strek for å zoome ut, eller på de grønne pilene for å se tilstøtende kart.


METAR-TAF: